Archival Weather

NSFA McMurdo Sound

NSFA McMurdo Sound, Antarctica (NZCM)

Report from: Saturday, April 1, 2023 2:55 PM UTC
Current time: Monday, July 22, 2024 11:36 AM UTC

Current weather – Weather history – Daily summaries
Weather forecast

Temperature-21.6°C (-6.9°F)
Wind chill-31.0°C (-23.7°F)
Dew point-25.7°C (-14.3°F)
Winds 8 kts (4.1 m/s, 9.2 mph) East-Northeast (60°)
Visibility6.2 mi. (10 km)
Clouds Sky clear
Altimeter29.84 in.Hg (1010 mB)
Relative humidity69 %
Density altitude-4,616 ft. (-1,407 m)
Sea-level pressure101.1 kPa (1011 mB, 29.86 in.Hg)
Remarks Fully automated report
Automated weather observing station with precipitation discriminator
Pressure falling more quickly
Flight conditions Visual Meteorological Conditions
Raw dataNZCM 011455Z AUTO 06008KT 9999 CLR M22/M26 A2984 RMK AO2 SLP112 T12161257 58009
An error has occurred. This application may no longer respond until reloaded. Reload 🗙